Time;durP1;ratioP1;P1;durP2;ratioP2;P2;SDS_P1;SDS_P2;PMS_P1;PMS_P2;Temp;Humidity;BMP_temperature;BMP_pressure;BME280_temperature;BME280_humidity;BME280_pressure;Samples;Min_cycle;Max_cycle;Signal;HPM_P1;HPM_P2
2023/12/24 00:00:37;;;;;;;1.40;0.73;;;;;;;11.05;84.73;97954.19;4204509;28;20199;-86
2023/12/24 00:02:40;;;;;;;1.50;0.87;;;;;;;11.06;85.45;97958.44;4192132;28;20615;-86
2023/12/24 00:04:44;;;;;;;2.47;0.80;;;;;;;11.06;84.53;97947.16;4190907;28;20612;-86
2023/12/24 00:06:48;;;;;;;1.97;0.73;;;;;;;11.05;85.39;97946.34;4186597;28;20624;-86
2023/12/24 00:08:52;;;;;;;1.42;0.60;;;;;;;11.05;85.01;97956.78;4195952;28;20658;-87
2023/12/24 00:11:13;;;;;;;1.50;0.60;;;;;;;11.06;85.33;97955.81;4198085;28;20386;-86
2023/12/24 00:13:15;;;;;;;1.53;0.80;;;;;;;11.08;85.61;97956.56;4188223;28;20651;-86
2023/12/24 00:15:19;;;;;;;2.33;0.90;;;;;;;11.10;85.40;97951.25;4187960;28;20616;-86
2023/12/24 00:17:22;;;;;;;1.77;0.80;;;;;;;11.09;84.04;97947.78;4186868;28;20727;-86
2023/12/24 00:19:25;;;;;;;1.57;0.70;;;;;;;11.11;85.35;97951.13;4204694;28;20722;-85
2023/12/24 00:21:28;;;;;;;1.50;0.60;;;;;;;11.12;85.12;97952.78;4190931;28;21255;-86
2023/12/24 00:23:33;;;;;;;2.10;0.83;;;;;;;11.13;84.98;97937.97;4208658;28;20669;-86
2023/12/24 00:25:36;;;;;;;1.40;0.80;;;;;;;11.16;83.51;97945.56;4191081;28;20638;-86
2023/12/24 00:27:40;;;;;;;1.60;0.70;;;;;;;11.15;84.49;97951.72;4202731;28;20666;-86
2023/12/24 00:29:43;;;;;;;3.43;0.90;;;;;;;11.13;84.32;97949.22;4192803;28;20627;-86
2023/12/24 00:34:12;;;;;;;3.13;1.00;;;;;;;11.08;84.86;97940.91;4170256;28;20724;-86
2023/12/24 00:36:18;;;;;;;1.70;0.80;;;;;;;11.10;84.12;97946.84;4197184;28;20631;-86
2023/12/24 00:38:21;;;;;;;2.43;1.00;;;;;;;11.15;83.34;97944.72;4200516;28;20620;-86
2023/12/24 00:40:26;;;;;;;1.90;1.03;;;;;;;11.14;83.54;97937.84;4187458;28;20627;-86
2023/12/24 00:42:29;;;;;;;1.60;0.90;;;;;;;11.12;82.59;97937.13;4190535;28;20627;-86
2023/12/24 00:44:32;;;;;;;1.50;0.70;;;;;;;11.12;82.72;97949.34;4199461;28;20627;-86
2023/12/24 00:46:45;;;;;;;2.60;0.90;;;;;;;11.11;83.40;97945.91;4204458;28;20747;-86
2023/12/24 00:48:48;;;;;;;4.07;1.13;;;;;;;11.07;82.60;97941.84;4199017;28;20658;-86
2023/12/24 00:50:52;;;;;;;1.80;1.00;;;;;;;11.06;82.47;97934.94;4208121;28;20630;-86
2023/12/24 00:52:55;;;;;;;1.80;0.90;;;;;;;11.06;83.17;97927.13;4216223;28;20666;-86
2023/12/24 00:54:58;;;;;;;2.33;1.17;;;;;;;11.09;83.24;97937.34;4191324;28;20641;-86
2023/12/24 00:57:15;;;;;;;1.30;0.60;;;;;;;11.12;82.28;97926.66;4205865;28;20676;-86
2023/12/24 00:59:17;;;;;;;1.50;0.70;;;;;;;11.10;82.88;97938.19;4201967;28;21126;-86
2023/12/24 01:01:20;;;;;;;2.00;1.20;;;;;;;11.06;83.32;97931.50;4191963;28;20710;-86
2023/12/24 01:03:22;;;;;;;1.97;0.80;;;;;;;11.10;83.13;97931.19;4189778;28;20631;-86
2023/12/24 01:05:26;;;;;;;2.00;1.03;;;;;;;11.05;82.39;97929.84;4200396;28;20642;-87
2023/12/24 01:07:44;;;;;;;1.90;1.00;;;;;;;11.05;84.35;97935.06;4183474;28;20616;-87
2023/12/24 01:09:46;;;;;;;2.00;0.80;;;;;;;11.06;84.03;97936.72;4207482;28;20657;-86
2023/12/24 01:11:49;;;;;;;1.70;0.73;;;;;;;11.10;83.57;97938.19;4189649;28;20648;-86
2023/12/24 01:13:54;;;;;;;2.20;0.80;;;;;;;11.14;84.22;97931.78;4188839;28;20651;-86
2023/12/24 01:16:12;;;;;;;1.40;0.70;;;;;;;11.16;82.61;97938.56;4205267;28;20626;-86
2023/12/24 01:18:16;;;;;;;1.40;0.70;;;;;;;11.13;84.25;97936.19;4188364;28;20673;-86
2023/12/24 01:20:19;;;;;;;1.30;0.70;;;;;;;11.10;82.11;97933.78;4206108;28;20638;-86
2023/12/24 01:22:23;;;;;;;1.37;0.67;;;;;;;11.13;82.62;97933.56;4187380;28;20627;-86
2023/12/24 01:24:26;;;;;;;1.40;0.70;;;;;;;11.11;82.44;97929.41;4190293;28;20626;-86
2023/12/24 01:26:32;;;;;;;3.93;0.80;;;;;;;11.14;82.66;97927.41;4192939;28;20618;-86
2023/12/24 01:28:35;;;;;;;1.60;0.90;;;;;;;11.12;82.24;97931.91;4205862;28;20659;-86
2023/12/24 01:30:40;;;;;;;1.70;0.80;;;;;;;11.09;82.77;97926.91;4198741;28;20634;-86
2023/12/24 01:32:43;;;;;;;2.87;0.80;;;;;;;11.08;82.51;97933.09;4197009;28;20623;-86
2023/12/24 01:34:45;;;;;;;2.10;0.90;;;;;;;11.13;83.16;97933.56;4182085;28;21063;-86
2023/12/24 01:36:49;;;;;;;2.30;0.70;;;;;;;11.12;83.08;97926.66;4184259;28;21254;-86
2023/12/24 01:38:52;;;;;;;1.60;0.77;;;;;;;11.14;82.91;97927.41;4204069;28;20706;-86
2023/12/24 01:40:55;;;;;;;1.70;0.90;;;;;;;11.09;82.03;97921.69;4202228;28;21356;-86
2023/12/24 01:43:15;;;;;;;1.30;0.60;;;;;;;11.01;81.71;97923.19;4205080;28;20634;-87
2023/12/24 01:45:19;;;;;;;1.43;0.73;;;;;;;10.97;81.92;97927.78;4197674;28;20627;-85
2023/12/24 01:47:24;;;;;;;1.87;0.70;;;;;;;10.93;82.34;97902.88;4193140;28;21404;-88
2023/12/24 01:49:27;;;;;;;2.40;1.00;;;;;;;10.93;82.17;97918.53;4188404;28;20648;-87
2023/12/24 01:51:30;;;;;;;2.50;1.07;;;;;;;10.92;81.97;97916.84;4204571;28;20677;-88
2023/12/24 01:53:34;;;;;;;1.87;1.00;;;;;;;10.87;82.04;97916.38;4200002;28;20620;-88
2023/12/24 01:55:37;;;;;;;1.90;1.00;;;;;;;10.90;82.01;97916.16;4192949;28;20627;-87
2023/12/24 01:57:40;;;;;;;1.80;1.10;;;;;;;10.95;81.39;97924.47;4204199;28;20624;-87
2023/12/24 01:59:43;;;;;;;1.77;0.90;;;;;;;10.98;81.04;97919.03;4187186;28;21031;-86
2023/12/24 02:01:47;;;;;;;2.63;1.13;;;;;;;10.90;81.54;97904.88;4189632;28;20619;-86
2023/12/24 02:03:52;;;;;;;3.73;1.20;;;;;;;10.86;80.31;97911.25;4199014;28;20623;-86
2023/12/24 02:06:02;;;;;;;1.60;0.70;;;;;;;10.88;81.79;97897.16;4201972;28;20654;-86
2023/12/24 02:08:07;;;;;;;2.60;1.00;;;;;;;10.93;79.91;97926.34;4189374;28;20748;-86
2023/12/24 02:10:11;;;;;;;2.37;0.80;;;;;;;10.92;80.45;97919.47;4186959;28;20728;-86
2023/12/24 02:12:15;;;;;;;1.40;0.80;;;;;;;11.00;80.89;97927.56;4213493;28;20627;-86
2023/12/24 02:14:19;;;;;;;2.20;1.10;;;;;;;10.97;80.44;97925.19;4189405;28;21434;-86
2023/12/24 02:16:24;;;;;;;1.80;0.80;;;;;;;10.98;80.55;97926.03;4185589;28;20596;-86
2023/12/24 02:18:29;;;;;;;1.60;0.80;;;;;;;10.93;80.77;97926.34;4208017;28;21211;-86
2023/12/24 02:20:34;;;;;;;2.10;0.97;;;;;;;10.93;81.06;97925.50;4205343;28;21026;-86
2023/12/24 02:22:40;;;;;;;1.70;0.73;;;;;;;10.92;81.22;97924.69;4189581;28;20627;-86
2023/12/24 02:24:43;;;;;;;1.40;0.80;;;;;;;10.90;81.08;97929.19;4188604;28;20636;-86
2023/12/24 02:26:51;;;;;;;1.43;0.70;;;;;;;10.84;82.19;97932.25;4190974;28;20628;-87
2023/12/24 02:29:00;;;;;;;1.40;0.70;;;;;;;10.81;81.32;97923.81;4201690;28;21278;-86
2023/12/24 02:31:06;;;;;;;1.50;0.90;;;;;;;10.84;80.97;97918.38;4201438;28;20711;-86
2023/12/24 02:33:12;;;;;;;1.70;0.90;;;;;;;10.86;81.42;97927.72;4216747;28;21023;-86
2023/12/24 02:35:17;;;;;;;2.67;0.90;;;;;;;10.95;81.24;97934.06;4201072;28;20680;-86
2023/12/24 02:37:26;;;;;;;1.80;0.90;;;;;;;10.86;79.89;97919.91;4193062;28;21049;-86
2023/12/24 02:39:30;;;;;;;2.10;0.60;;;;;;;10.87;81.78;97915.53;4209341;28;20785;-86
2023/12/24 02:41:34;;;;;;;1.30;0.60;;;;;;;10.86;80.33;97922.50;4191560;28;20639;-85
2023/12/24 02:43:38;;;;;;;1.80;0.80;;;;;;;10.94;80.66;97920.19;4205018;28;20634;-86
2023/12/24 02:45:44;;;;;;;1.90;0.70;;;;;;;10.96;79.84;97930.50;4199825;28;20628;-86
2023/12/24 02:47:48;;;;;;;2.23;1.07;;;;;;;10.93;79.91;97930.72;4196626;28;20640;-86
2023/12/24 02:49:53;;;;;;;2.37;0.70;;;;;;;10.95;80.10;97934.06;4202713;28;20651;-86
2023/12/24 02:51:56;;;;;;;1.80;0.90;;;;;;;10.96;80.06;97935.72;4188932;28;20679;-85
2023/12/24 02:53:59;;;;;;;1.83;0.70;;;;;;;10.96;80.41;97928.75;4215037;28;20634;-86
2023/12/24 02:56:11;;;;;;;1.43;0.60;;;;;;;10.97;80.22;97935.59;4189087;28;24537;-86
2023/12/24 02:58:15;;;;;;;1.93;0.70;;;;;;;10.99;79.69;97931.13;4206628;28;20679;-86
2023/12/24 03:00:18;;;;;;;1.87;0.83;;;;;;;11.02;80.49;97924.84;4190677;28;20633;-86
2023/12/24 03:02:22;;;;;;;1.40;0.70;;;;;;;11.02;80.94;97925.69;4192071;28;20632;-86
2023/12/24 03:04:26;;;;;;;2.33;0.80;;;;;;;11.02;80.68;97920.47;4205061;28;20729;-86
2023/12/24 03:06:29;;;;;;;2.23;0.60;;;;;;;10.97;80.52;97921.75;4198403;28;20634;-86
2023/12/24 03:08:33;;;;;;;1.50;0.90;;;;;;;11.02;80.49;97917.00;4198008;28;20670;-86
2023/12/24 03:10:37;;;;;;;1.77;0.67;;;;;;;11.02;80.31;97917.88;4205267;28;20662;-86
2023/12/24 03:12:42;;;;;;;1.50;0.70;;;;;;;11.02;80.19;97915.25;4187477;28;20655;-85
2023/12/24 03:14:46;;;;;;;1.60;0.60;;;;;;;11.00;80.70;97911.91;4214916;28;21033;-86
2023/12/24 03:16:49;;;;;;;2.17;0.70;;;;;;;10.96;80.57;97914.84;4216559;28;20733;-86
2023/12/24 03:18:54;;;;;;;1.97;0.80;;;;;;;11.00;82.30;97911.09;4205320;28;20996;-86
2023/12/24 03:21:08;;;;;;;;;;;;;;;;;;;;;
2023/12/24 03:23:18;;;;;;;1.50;0.60;;;;;;;10.96;82.27;97909.63;4191766;28;20741;-86
2023/12/24 03:25:22;;;;;;;2.10;0.83;;;;;;;10.96;81.46;97902.66;4187883;28;20632;-86
2023/12/24 03:27:26;;;;;;;1.57;0.70;;;;;;;10.98;81.15;97911.19;4204140;28;20677;-86
2023/12/24 03:29:32;;;;;;;1.33;0.60;;;;;;;10.98;82.03;97919.03;4203351;28;20663;-87
2023/12/24 03:31:35;;;;;;;1.50;0.50;;;;;;;11.00;81.54;97926.75;4182441;28;20615;-86
2023/12/24 03:33:39;;;;;;;1.47;0.70;;;;;;;10.97;81.55;97921.75;4187326;28;20624;-86
2023/12/24 03:35:43;;;;;;;1.87;0.60;;;;;;;10.98;82.99;97921.63;4195770;28;20636;-86
2023/12/24 03:37:47;;;;;;;3.90;1.27;;;;;;;10.95;83.34;97918.41;4203405;28;20634;-86
2023/12/24 03:39:50;;;;;;;1.13;0.50;;;;;;;10.92;81.79;97924.69;4199582;28;21211;-86
2023/12/24 03:41:54;;;;;;;1.30;0.63;;;;;;;10.93;82.69;97926.34;4200446;28;20624;-87
2023/12/24 03:43:58;;;;;;;1.83;0.50;;;;;;;11.01;81.97;97921.41;4196186;28;20658;-86
2023/12/24 03:46:03;;;;;;;1.40;0.63;;;;;;;10.98;82.19;97924.25;4185897;28;20678;-86
2023/12/24 03:48:08;;;;;;;2.23;0.70;;;;;;;10.91;83.31;97912.56;4201350;28;21203;-86
2023/12/24 03:50:12;;;;;;;1.40;0.60;;;;;;;10.94;82.41;97922.78;4192374;28;20724;-86
2023/12/24 03:52:16;;;;;;;1.73;0.67;;;;;;;10.90;84.00;97910.94;4204857;28;20647;-86
2023/12/24 03:54:21;;;;;;;1.70;0.80;;;;;;;10.92;82.50;97900.38;4195058;28;20637;-87
2023/12/24 03:56:25;;;;;;;1.67;0.70;;;;;;;10.90;83.57;97895.28;4199432;28;20645;-86
2023/12/24 03:58:29;;;;;;;1.30;0.50;;;;;;;10.88;84.24;97889.34;4186981;28;20632;-86
2023/12/24 04:00:33;;;;;;;1.30;0.60;;;;;;;10.93;83.83;97891.59;4188437;28;20662;-86
2023/12/24 04:02:38;;;;;;;1.73;0.70;;;;;;;10.86;83.74;97888.59;4201767;28;20627;-86
2023/12/24 04:04:44;;;;;;;1.40;0.60;;;;;;;10.86;84.31;97890.38;4200076;28;20671;-86
2023/12/24 04:06:47;;;;;;;1.60;0.73;;;;;;;10.86;83.13;97879.94;4200708;28;20608;-86
2023/12/24 04:08:51;;;;;;;2.57;0.80;;;;;;;10.76;84.21;97883.34;4188202;28;20629;-86
2023/12/24 04:11:12;;;;;;;1.93;0.67;;;;;;;10.73;84.66;97880.94;4188235;28;20640;-86
2023/12/24 04:13:15;;;;;;;2.13;0.83;;;;;;;10.76;84.03;97891.16;4182602;28;20651;-85
2023/12/24 04:15:19;;;;;;;1.80;0.50;;;;;;;10.76;84.11;97897.19;4199806;28;21194;-86
2023/12/24 04:17:23;;;;;;;1.30;0.60;;;;;;;10.75;84.56;97895.56;4205713;28;20641;-86
2023/12/24 04:19:27;;;;;;;1.60;1.00;;;;;;;10.77;84.51;97895.44;4202306;28;20630;-86
2023/12/24 04:21:33;;;;;;;1.40;0.70;;;;;;;10.78;83.58;97892.72;4180164;28;20643;-86
2023/12/24 04:23:36;;;;;;;1.70;0.70;;;;;;;10.82;82.86;97900.22;4199145;28;20636;-86
2023/12/24 04:25:38;;;;;;;1.10;0.50;;;;;;;10.83;84.72;97899.25;4200962;28;20687;-85
2023/12/24 04:27:43;;;;;;;1.40;0.70;;;;;;;10.80;83.46;97899.47;4183934;28;21299;-85
2023/12/24 04:29:46;;;;;;;1.40;0.80;;;;;;;10.84;83.32;97895.72;4195373;28;20747;-86
2023/12/24 04:31:50;;;;;;;1.53;0.70;;;;;;;10.89;84.39;97893.59;4185107;28;21191;-85
2023/12/24 04:33:52;;;;;;;1.50;0.80;;;;;;;10.92;82.66;97884.72;4211983;28;20639;-86
2023/12/24 04:36:19;;;;;;;1.47;0.73;;;;;;;10.94;81.79;97891.47;4196032;28;20738;-86
2023/12/24 04:38:22;;;;;;;1.77;0.90;;;;;;;10.96;84.06;97889.59;4201847;28;21211;-85
2023/12/24 04:40:26;;;;;;;2.23;1.03;;;;;;;10.95;83.71;97877.50;4202128;28;21286;-85
2023/12/24 04:42:29;;;;;;;1.60;0.90;;;;;;;10.98;82.35;97876.44;4197797;28;20639;-86
2023/12/24 04:44:32;;;;;;;1.60;0.80;;;;;;;10.97;83.31;97862.56;4182815;28;20706;-85
2023/12/24 04:46:40;;;;;;;2.60;0.97;;;;;;;10.96;82.15;97850.47;4185766;28;20624;-86
2023/12/24 04:48:43;;;;;;;1.87;0.97;;;;;;;10.89;82.02;97846.63;4198969;28;20709;-86
2023/12/24 04:50:47;;;;;;;2.30;0.83;;;;;;;10.91;81.76;97839.53;4203653;28;20774;-85
2023/12/24 04:52:51;;;;;;;1.60;0.87;;;;;;;10.88;82.89;97838.91;4184497;28;21019;-85
2023/12/24 04:54:55;;;;;;;1.83;0.73;;;;;;;10.82;83.14;97829.78;4186936;28;20616;-85
2023/12/24 04:57:23;;;;;;;1.60;0.90;;;;;;;10.71;84.47;97815.84;4201388;28;21104;-85
2023/12/24 04:59:27;;;;;;;1.40;0.70;;;;;;;10.65;84.37;97811.09;4196923;28;20639;-85
2023/12/24 05:01:30;;;;;;;1.87;0.90;;;;;;;10.53;84.26;97808.56;4187677;28;20656;-84
2023/12/24 05:03:35;;;;;;;2.13;0.80;;;;;;;10.45;85.56;97803.88;4199776;28;20638;-85
2023/12/24 05:05:38;;;;;;;1.77;1.00;;;;;;;10.42;85.50;97804.09;4189777;28;21188;-85
2023/12/24 05:07:41;;;;;;;3.00;1.10;;;;;;;10.45;85.11;97813.50;4190213;28;20213;-85
2023/12/24 05:09:45;;;;;;;1.60;0.87;;;;;;;10.39;85.93;97817.38;4188488;28;20608;-85
2023/12/24 05:11:49;;;;;;;2.83;0.77;;;;;;;10.43;85.18;97820.56;4186757;28;20666;-85
2023/12/24 05:13:52;;;;;;;1.70;0.80;;;;;;;10.39;85.93;97819.97;4216169;28;20808;-85
2023/12/24 05:16:05;;;;;;;1.27;0.70;;;;;;;10.40;85.25;97818.19;4201445;28;21047;-85
2023/12/24 05:18:08;;;;;;;2.00;0.80;;;;;;;10.44;84.55;97817.03;4204353;28;20627;-85
2023/12/24 05:20:12;;;;;;;1.43;0.80;;;;;;;10.40;84.75;97816.44;4187839;28;20733;-85
2023/12/24 05:22:16;;;;;;;1.77;0.70;;;;;;;10.42;85.19;97822.34;4193887;28;20655;-85
2023/12/24 05:24:18;;;;;;;3.53;1.00;;;;;;;10.45;84.44;97836.97;4204453;28;20630;-85
2023/12/24 05:26:24;;;;;;;1.40;0.70;;;;;;;10.40;84.83;97831.22;4218364;28;21070;-85
2023/12/24 05:28:26;;;;;;;3.30;0.90;;;;;;;10.41;85.83;97828.50;4203598;28;21371;-85
2023/12/24 05:30:30;;;;;;;1.30;0.63;;;;;;;10.45;86.18;97836.97;4202094;28;20663;-85
2023/12/24 05:32:42;;;;;;;1.57;0.90;;;;;;;10.44;86.37;97832.69;4201464;28;20622;-85
2023/12/24 05:34:46;;;;;;;2.42;0.90;;;;;;;10.37;85.87;97821.00;4186285;28;21191;-85
2023/12/24 05:36:49;;;;;;;2.50;0.83;;;;;;;10.42;86.49;97819.75;4191493;28;20274;-85
2023/12/24 05:38:52;;;;;;;1.40;0.60;;;;;;;10.44;85.49;97812.63;4200745;28;20632;-85
2023/12/24 05:41:12;;;;;;;2.60;1.03;;;;;;;10.42;85.65;97824.16;4206016;28;20631;-84
2023/12/24 05:43:17;;;;;;;1.40;0.70;;;;;;;10.44;85.59;97811.81;4201609;28;20626;-85
2023/12/24 05:45:21;;;;;;;2.10;0.70;;;;;;;10.46;85.61;97815.13;4198412;28;21188;-85
2023/12/24 05:47:24;;;;;;;1.50;0.60;;;;;;;10.48;86.29;97810.66;4190418;28;20635;-85
2023/12/24 05:49:28;;;;;;;1.30;0.63;;;;;;;10.49;86.32;97804.50;4204492;28;20626;-85
2023/12/24 05:51:37;;;;;;;1.60;0.70;;;;;;;10.54;85.90;97803.22;4210057;28;20793;-84
2023/12/24 05:53:40;;;;;;;1.57;0.63;;;;;;;10.39;86.18;97798.28;4202209;28;20743;-85
2023/12/24 05:55:43;;;;;;;1.40;0.70;;;;;;;10.39;86.20;97793.91;4185347;28;20682;-84
2023/12/24 05:57:47;;;;;;;1.60;0.70;;;;;;;10.33;86.38;97799.56;4205022;28;21302;-85
2023/12/24 05:59:51;;;;;;;1.60;0.70;;;;;;;10.33;86.25;97798.72;4204299;28;20213;-85
2023/12/24 06:01:53;;;;;;;1.40;0.70;;;;;;;10.29;86.14;97784.25;4190387;28;20235;-85
2023/12/24 06:03:58;;;;;;;1.60;0.70;;;;;;;10.23;86.94;97781.25;4202834;28;20646;-85
2023/12/24 06:06:34;;;;;;;2.10;0.80;;;;;;;10.18;86.98;97786.81;4205383;28;20729;-85
2023/12/24 06:08:38;;;;;;;1.53;0.80;;;;;;;10.18;87.15;97786.81;4148483;28;20676;-85
2023/12/24 06:10:41;;;;;;;2.00;0.70;;;;;;;10.18;86.83;97783.34;4142631;28;20646;-84
2023/12/24 06:12:49;;;;;;;1.63;0.60;;;;;;;10.16;88.12;97782.63;4141837;28;20661;-85
2023/12/24 06:14:54;;;;;;;1.40;0.60;;;;;;;10.09;87.15;97787.47;4189301;28;20640;-85
2023/12/24 06:16:57;;;;;;;1.53;0.70;;;;;;;10.10;86.97;97794.34;4198906;28;20650;-84
2023/12/24 06:19:01;;;;;;;1.50;0.68;;;;;;;10.06;88.32;97798.09;4218770;28;20691;-85
2023/12/24 06:21:20;;;;;;;2.20;0.43;;;;;;;10.06;87.77;97795.50;4204602;28;20199;-85
2023/12/24 06:23:24;;;;;;;1.60;0.60;;;;;;;10.08;87.40;97796.19;4192368;28;20208;-85
2023/12/24 06:25:27;;;;;;;1.20;0.50;;;;;;;10.11;87.55;97798.59;4188745;28;20586;-85
2023/12/24 06:27:30;;;;;;;1.97;0.50;;;;;;;10.14;87.98;97790.56;4202592;28;20631;-84
2023/12/24 06:29:33;;;;;;;1.33;0.50;;;;;;;10.12;87.93;97794.22;4193401;28;20616;-85
2023/12/24 06:31:38;;;;;;;1.10;0.40;;;;;;;10.08;87.81;97793.59;4197895;28;20903;-85
2023/12/24 06:33:41;;;;;;;1.73;0.53;;;;;;;10.09;88.76;97792.66;4202447;28;20627;-85
2023/12/24 06:35:44;;;;;;;1.45;0.60;;;;;;;10.08;88.37;97798.81;4203204;28;20715;-84
2023/12/24 06:37:48;;;;;;;1.95;0.70;;;;;;;10.11;87.70;97797.78;4189098;28;20713;-84
2023/12/24 06:39:51;;;;;;;2.10;0.87;;;;;;;10.09;88.78;97782.25;4192809;28;20726;-85
2023/12/24 06:41:54;;;;;;;2.00;0.90;;;;;;;10.06;89.31;97769.44;4204964;28;20626;-85
2023/12/24 06:43:58;;;;;;;1.30;0.60;;;;;;;10.04;89.89;97773.94;4188745;28;20627;-85
2023/12/24 06:46:11;;;;;;;1.10;0.50;;;;;;;10.03;89.77;97774.03;4201851;28;20634;-85
2023/12/24 06:48:16;;;;;;;1.23;0.57;;;;;;;10.00;89.61;97774.25;4216435;28;20616;-85
2023/12/24 06:50:22;;;;;;;1.38;0.45;;;;;;;9.97;90.85;97772.69;4201674;28;20216;-85
2023/12/24 06:52:25;;;;;;;2.05;0.70;;;;;;;10.00;90.52;97774.25;4183575;28;20230;-85
2023/12/24 06:54:28;;;;;;;2.05;0.80;;;;;;;9.97;90.55;97777.91;4197070;28;20205;-85
2023/12/24 06:57:09;;;;;;;1.40;0.50;;;;;;;9.98;91.39;97783.94;4203080;28;20213;-85
2023/12/24 06:59:12;;;;;;;1.30;0.60;;;;;;;9.92;90.77;97782.59;4194222;28;21095;-85
2023/12/24 07:01:15;;;;;;;1.90;0.60;;;;;;;9.96;91.97;97783.22;4198202;28;21219;-85
2023/12/24 07:03:20;;;;;;;2.13;0.60;;;;;;;9.94;91.81;97788.53;4184536;28;20623;-85
2023/12/24 07:05:23;;;;;;;1.20;0.60;;;;;;;10.03;91.75;97787.06;4198591;28;20630;-84
2023/12/24 07:07:39;;;;;;;1.15;0.50;;;;;;;10.01;91.33;97787.19;4202473;28;20240;-85
2023/12/24 07:09:42;;;;;;;1.60;0.70;;;;;;;10.03;92.27;97793.09;4204120;28;20243;-85
2023/12/24 07:11:45;;;;;;;1.20;0.50;;;;;;;10.01;92.77;97784.56;4191268;28;21061;-85
2023/12/24 07:13:49;;;;;;;1.42;0.60;;;;;;;9.93;92.66;97776.44;4192709;28;20656;-85
2023/12/24 07:16:05;;;;;;;1.52;0.70;;;;;;;9.94;94.31;97783.34;4209490;28;20216;-85
2023/12/24 07:18:07;;;;;;;1.10;0.50;;;;;;;9.93;93.76;97773.84;4205348;28;20227;-85
2023/12/24 07:20:13;;;;;;;2.08;0.80;;;;;;;9.87;95.19;97763.81;4199604;28;20223;-85
2023/12/24 07:22:17;;;;;;;1.30;0.60;;;;;;;9.85;95.47;97773.53;4184393;28;20257;-85
2023/12/24 07:24:21;;;;;;;1.20;0.50;;;;;;;9.79;96.09;97780.94;4201610;28;21322;-85
2023/12/24 07:26:24;;;;;;;1.75;0.80;;;;;;;9.79;96.38;97773.13;4198246;28;21028;-85
2023/12/24 07:28:28;;;;;;;1.40;0.70;;;;;;;9.80;96.22;97772.16;4186221;28;20208;-85
2023/12/24 07:30:32;;;;;;;1.52;0.77;;;;;;;9.76;96.71;97762.09;4198580;28;20675;-85
2023/12/24 07:32:35;;;;;;;2.03;0.60;;;;;;;9.77;96.42;97755.94;4201963;28;20229;-85
2023/12/24 07:34:38;;;;;;;2.03;0.90;;;;;;;9.77;97.05;97756.75;4205106;28;20204;-85
2023/12/24 07:36:43;;;;;;;1.80;1.00;;;;;;;9.75;97.16;97748.25;4205683;28;20664;-85
2023/12/24 07:38:45;;;;;;;1.30;0.70;;;;;;;9.76;96.98;97747.31;4186459;28;20623;-85
2023/12/24 07:40:49;;;;;;;1.60;0.82;;;;;;;9.82;97.21;97749.47;4187369;28;20209;-85
2023/12/24 07:43:11;;;;;;;1.50;0.88;;;;;;;9.87;97.43;97740.38;4198131;28;20243;-85
2023/12/24 07:45:15;;;;;;;2.13;0.90;;;;;;;9.89;96.83;97737.66;4201650;28;20212;-85
2023/12/24 07:47:18;;;;;;;1.80;0.90;;;;;;;9.90;97.67;97727.16;4203484;28;20197;-85
2023/12/24 07:49:20;;;;;;;1.50;0.70;;;;;;;9.97;96.43;97738.84;4189859;28;20210;-85
2023/12/24 07:51:53;;;;;;;1.50;0.70;;;;;;;10.02;96.25;97754.13;4205200;28;21215;-85
2023/12/24 07:53:57;;;;;;;1.70;0.80;;;;;;;10.02;96.24;97746.31;4216713;28;20296;-85
2023/12/24 07:56:13;;;;;;;2.23;0.80;;;;;;;10.03;97.20;97746.22;4203087;28;20265;-86
2023/12/24 07:58:16;;;;;;;1.60;0.70;;;;;;;10.01;96.92;97753.31;4202539;28;20691;-85
2023/12/24 08:00:19;;;;;;;1.42;0.75;;;;;;;10.04;97.46;97760.06;4201067;28;20669;-86
2023/12/24 08:02:22;;;;;;;1.90;0.70;;;;;;;10.03;97.63;97767.06;4191371;28;20296;-85
2023/12/24 08:04:25;;;;;;;1.50;0.80;;;;;;;10.04;97.84;97770.47;4187166;28;20636;-85
2023/12/24 08:06:28;;;;;;;2.15;0.90;;;;;;;10.02;97.26;97765.38;4202297;28;20668;-85
2023/12/24 08:08:33;;;;;;;1.77;0.70;;;;;;;9.99;98.08;97770.81;4202712;28;20910;-85
2023/12/24 08:10:37;;;;;;;1.40;0.70;;;;;;;9.96;98.39;97763.22;4200241;28;20303;-85
2023/12/24 08:12:40;;;;;;;1.83;0.90;;;;;;;9.93;98.03;97755.59;4201259;28;21097;-87
2023/12/24 08:14:42;;;;;;;1.60;0.80;;;;;;;9.93;98.04;97767.78;4186817;28;20632;-86
2023/12/24 08:17:13;;;;;;;1.37;0.77;;;;;;;10.00;98.06;97774.25;4200770;28;20661;-87
2023/12/24 08:19:15;;;;;;;1.77;0.80;;;;;;;10.02;97.76;97772.38;4169462;28;21199;-87
2023/12/24 08:21:18;;;;;;;2.00;1.00;;;;;;;10.03;98.40;97768.84;4202427;28;20622;-88
2023/12/24 08:23:22;;;;;;;4.38;2.65;;;;;;;10.05;97.72;97765.16;4204739;28;20769;-87
2023/12/24 08:25:27;;;;;;;3.50;2.17;;;;;;;10.05;96.83;97769.53;4188933;28;20264;-88
2023/12/24 08:27:29;;;;;;;2.20;1.10;;;;;;;10.08;97.12;97761.50;4181393;28;20616;-87
2023/12/24 08:29:32;;;;;;;1.77;1.00;;;;;;;10.13;96.82;97765.47;4186117;28;20220;-87
2023/12/24 08:31:35;;;;;;;1.60;0.90;;;;;;;10.14;97.16;97761.06;4206941;28;20638;-88
2023/12/24 08:33:39;;;;;;;1.87;1.03;;;;;;;10.16;97.07;97754.78;4205934;28;20228;-88
2023/12/24 08:35:42;;;;;;;1.97;1.00;;;;;;;10.14;97.36;97743.66;4198740;28;20745;-89
2023/12/24 08:37:45;;;;;;;2.00;1.00;;;;;;;10.17;96.76;97740.00;4187727;28;20636;-92
2023/12/24 08:39:49;;;;;;;1.77;0.98;;;;;;;10.17;96.44;97734.78;4191610;28;20754;-93
2023/12/24 08:41:52;;;;;;;1.97;1.20;;;;;;;10.15;96.40;97726.22;4199088;28;20214;-91
2023/12/24 08:43:56;;;;;;;1.53;0.90;;;;;;;10.11;96.81;97715.22;4185192;28;20623;-89
2023/12/24 08:46:08;;;;;;;1.70;1.00;;;;;;;10.15;95.82;97718.41;4193597;28;20637;-90
2023/12/24 08:48:11;;;;;;;1.70;1.03;;;;;;;10.13;95.51;97722.91;4203709;28;20677;-90
2023/12/24 08:50:15;;;;;;;2.20;1.00;;;;;;;10.17;96.86;97724.38;4196679;28;20678;-91
2023/12/24 08:52:18;;;;;;;2.72;1.40;;;;;;;10.16;96.47;97730.50;4196382;28;21126;-89
2023/12/24 08:54:23;;;;;;;1.85;1.10;;;;;;;10.15;95.61;97727.09;4205998;28;20213;-88
2023/12/24 08:56:27;;;;;;;1.97;1.30;;;;;;;10.19;96.13;97733.72;4208572;28;20201;-89
2023/12/24 08:58:32;;;;;;;2.00;0.93;;;;;;;10.21;96.14;97739.69;4195223;28;20635;-86
2023/12/24 09:00:35;;;;;;;2.10;0.98;;;;;;;10.25;97.66;97741.09;4207103;28;20627;-85
2023/12/24 09:02:39;;;;;;;2.97;1.70;;;;;;;10.28;97.00;97747.88;4205389;28;20239;-84
2023/12/24 09:04:46;;;;;;;1.50;0.85;;;;;;;10.23;99.22;97756.03;4204101;28;20631;-84
2023/12/24 09:06:49;;;;;;;2.50;1.25;;;;;;;10.18;98.83;97744.25;4201544;28;20248;-84
2023/12/24 09:08:52;;;;;;;2.13;0.90;;;;;;;10.19;99.45;97748.53;4219930;28;20201;-87
2023/12/24 09:11:11;;;;;;;1.35;0.70;;;;;;;10.23;99.54;97758.63;4191315;28;20627;-85
2023/12/24 09:13:15;;;;;;;1.93;0.70;;;;;;;10.26;100.00;97763.63;4193332;28;20307;-83
2023/12/24 09:15:22;;;;;;;1.53;0.60;;;;;;;10.24;99.65;97762.91;4203152;28;20640;-87
2023/12/24 09:17:26;;;;;;;1.50;0.77;;;;;;;10.30;99.75;97770.28;4189926;28;20631;-86
2023/12/24 09:19:29;;;;;;;2.03;1.00;;;;;;;10.36;100.00;97767.25;4199243;28;21471;-87
2023/12/24 09:21:41;;;;;;;1.65;0.70;;;;;;;10.33;100.00;97759.63;4215890;28;20673;-86
2023/12/24 09:23:45;;;;;;;1.30;0.55;;;;;;;10.35;100.00;97771.59;4201774;28;20296;-86
2023/12/24 09:25:47;;;;;;;1.50;0.60;;;;;;;10.43;99.87;97771.03;4207631;28;20205;-86
2023/12/24 09:27:51;;;;;;;1.93;0.70;;;;;;;10.46;99.83;97763.84;4210477;28;20623;-86
2023/12/24 09:29:54;;;;;;;2.10;0.80;;;;;;;10.50;99.62;97769.66;4207687;28;20627;-88
2023/12/24 09:31:59;;;;;;;1.63;0.80;;;;;;;10.55;99.55;97767.53;4188284;28;21143;-86
2023/12/24 09:34:02;;;;;;;2.47;0.73;;;;;;;10.58;99.36;97769.94;4196696;28;21040;-88
2023/12/24 09:36:14;;;;;;;1.20;0.50;;;;;;;10.65;99.91;97771.16;4204714;28;20623;-88
2023/12/24 09:38:17;;;;;;;1.50;0.80;;;;;;;10.71;99.92;97770.69;4192051;28;20732;-86
2023/12/24 09:40:21;;;;;;;1.30;0.60;;;;;;;10.77;100.00;97767.63;4205828;28;20783;-87
2023/12/24 09:42:24;;;;;;;1.70;0.80;;;;;;;10.79;100.00;97766.56;4187134;28;20715;-86
2023/12/24 09:44:29;;;;;;;1.57;0.80;;;;;;;10.83;99.96;97752.34;4202013;28;20665;-87
2023/12/24 09:46:33;;;;;;;2.97;1.90;;;;;;;10.87;100.00;97752.00;4196953;28;20978;-86
2023/12/24 09:48:38;;;;;;;4.03;2.27;;;;;;;10.87;100.00;97754.63;4189462;28;21117;-86
2023/12/24 09:50:41;;;;;;;3.80;2.57;;;;;;;10.91;99.53;97765.66;4204381;28;20672;-86
2023/12/24 09:52:49;;;;;;;3.80;2.10;;;;;;;10.96;99.18;97769.59;4205527;28;20619;-85